Time;durP1;ratioP1;P1;durP2;ratioP2;P2;SDS_P1;SDS_P2;PMS_P1;PMS_P2;Temp;Humidity;BMP_temperature;BMP_pressure;BME280_temperature;BME280_humidity;BME280_pressure;Samples;Min_cycle;Max_cycle;Signal;HPM_P1;HPM_P2
2022/10/06 00:01:17;;;;;;;;;14.00;13.20;;;;;18.02;47.71;100447.16;5066770;28;9641;-77
2022/10/06 00:03:46;;;;;;;;;17.20;13.60;;;;;18.08;47.28;100447.91;5066694;28;8883;-76
2022/10/06 00:06:17;;;;;;;;;13.60;13.40;;;;;18.09;46.97;100440.84;5050209;28;8852;-77
2022/10/06 00:08:47;;;;;;;;;14.60;14.20;;;;;18.08;46.99;100447.06;5074071;28;9051;-76
2022/10/06 00:11:16;;;;;;;;;16.00;14.20;;;;;18.11;46.55;100444.38;5087086;28;8838;-77
2022/10/06 00:13:45;;;;;;;;;15.00;15.00;;;;;18.16;46.24;100453.06;5083199;28;8948;-77
2022/10/06 00:16:17;;;;;;;;;13.80;12.20;;;;;18.06;46.51;100447.06;5049572;28;8938;-77
2022/10/06 00:18:45;;;;;;;;;14.40;14.40;;;;;18.20;46.85;100451.25;5067439;28;8879;-78
2022/10/06 00:21:15;;;;;;;;;13.20;13.00;;;;;18.22;46.44;100447.69;5050552;28;8866;-77
2022/10/06 00:23:43;;;;;;;;;18.80;17.40;;;;;18.19;46.81;100446.88;5067013;28;8863;-79
2022/10/06 00:26:15;;;;;;;;;14.60;14.40;;;;;18.21;46.66;100434.53;5050160;28;8879;-78
2022/10/06 00:28:47;;;;;;;;;17.80;16.40;;;;;18.24;46.98;100439.72;5083308;27;8828;-78
2022/10/06 00:31:18;;;;;;;;;17.00;16.40;;;;;18.21;46.54;100439.81;5112143;27;8850;-76
2022/10/06 00:33:48;;;;;;;;;18.00;17.20;;;;;18.27;47.10;100437.91;5112002;27;8890;-76
2022/10/06 00:36:17;;;;;;;;;19.00;18.20;;;;;17.95;47.85;100442.88;5130218;27;8849;-80
2022/10/06 00:38:45;;;;;;;;;19.40;18.00;;;;;18.02;48.07;100445.38;5116523;27;8835;-77
2022/10/06 00:41:18;;;;;;;;;18.20;18.20;;;;;17.64;48.76;100441.56;5091587;28;8836;-78
2022/10/06 00:43:50;;;;;;;;;19.80;19.20;;;;;17.60;48.44;100433.69;5108508;28;8913;-78
2022/10/06 00:46:25;;;;;;;;;20.40;19.20;;;;;17.71;48.88;100432.66;5099929;28;8901;-77
2022/10/06 00:49:02;;;;;;;;;18.80;18.80;;;;;17.59;48.80;100432.84;5074529;28;8971;-80
2022/10/06 00:51:33;;;;;;;;;15.40;15.40;;;;;17.48;48.93;100429.50;5091152;28;8843;-76
2022/10/06 00:54:02;;;;;;;;;19.00;19.00;;;;;17.42;48.98;100422.53;5100393;27;9057;-80
2022/10/06 00:56:32;;;;;;;;;17.00;17.00;;;;;17.34;49.75;100413.88;5111692;27;8845;-80
2022/10/06 00:59:01;;;;;;;;;21.40;20.00;;;;;17.33;49.20;100426.19;5111639;27;9607;-77
2022/10/06 01:01:31;;;;;;;;;16.40;16.40;;;;;17.25;49.49;100429.81;5128985;27;8834;-77
2022/10/06 01:04:06;;;;;;;;;20.20;19.20;;;;;17.22;49.69;100414.03;5094327;27;8857;-77
2022/10/06 01:06:44;;;;;;;;;19.80;18.40;;;;;17.28;49.74;100419.25;5065945;28;8868;-78
2022/10/06 01:09:16;;;;;;;;;21.00;20.20;;;;;17.32;49.55;100410.41;5046187;28;8873;-76
2022/10/06 01:11:50;;;;;;;;;14.40;14.40;;;;;17.38;48.78;100406.78;5045835;28;8876;-77
2022/10/06 01:14:21;;;;;;;;;16.00;14.20;;;;;17.45;48.55;100400.56;5013072;28;8862;-78
2022/10/06 01:16:55;;;;;;;;;18.00;18.00;;;;;17.53;48.73;100402.16;5029320;28;8849;-76
2022/10/06 01:19:35;;;;;;;;;18.00;17.20;;;;;17.54;48.46;100401.28;5045195;28;8854;-77
2022/10/06 01:22:07;;;;;;;;;18.80;18.80;;;;;17.57;48.36;100400.34;5028933;28;8862;-76
2022/10/06 01:24:37;;;;;;;;;12.60;11.40;;;;;17.65;48.06;100401.09;5025979;28;8832;-76
2022/10/06 01:27:10;;;;;;;;;18.40;16.80;;;;;17.72;47.63;100402.72;5049028;28;8841;-78
2022/10/06 01:29:39;;;;;;;;;18.00;18.00;;;;;17.76;47.51;100394.78;5066593;28;9703;-76
2022/10/06 01:32:08;;;;;;;;;18.00;16.60;;;;;17.81;47.42;100393.81;5049647;28;8864;-76
2022/10/06 01:34:36;;;;;;;;;23.00;20.60;;;;;17.85;47.90;100390.25;5031093;28;8859;-77
2022/10/06 01:37:06;;;;;;;;;20.40;19.00;;;;;17.82;47.61;100392.91;5073766;28;8948;-77
2022/10/06 01:39:34;;;;;;;;;15.20;15.20;;;;;17.89;47.66;100389.28;5090495;28;8844;-76
2022/10/06 01:42:05;;;;;;;;;18.20;18.00;;;;;17.91;47.37;100394.56;5108373;28;8920;-76
2022/10/06 01:44:33;;;;;;;;;16.00;16.00;;;;;17.91;47.04;100394.56;5090439;28;8983;-76
2022/10/06 01:47:05;;;;;;;;;15.00;15.00;;;;;17.92;47.13;100386.63;5090101;28;8869;-76
2022/10/06 01:49:34;;;;;;;;;19.00;17.00;;;;;17.93;46.84;100384.84;5090529;27;8867;-77
2022/10/06 01:52:03;;;;;;;;;15.80;15.80;;;;;17.95;46.74;100385.69;5090578;28;8816;-77
2022/10/06 01:54:32;;;;;;;;;19.00;18.00;;;;;17.93;47.55;100398.91;5108212;28;8847;-77
2022/10/06 01:57:01;;;;;;;;;20.20;19.00;;;;;17.93;46.96;100396.25;5106581;28;8863;-77
2022/10/06 01:59:31;;;;;;;;;20.60;19.80;;;;;17.91;47.46;100395.41;5073324;28;8864;-76
2022/10/06 02:01:59;;;;;;;;;20.40;20.20;;;;;17.82;47.84;100397.31;5055138;28;8920;-77
2022/10/06 02:04:30;;;;;;;;;19.60;19.40;;;;;17.68;47.48;100394.91;5084994;28;8865;-77
2022/10/06 02:07:01;;;;;;;;;19.80;19.80;;;;;17.74;47.70;100394.81;5067450;28;8837;-76
2022/10/06 02:09:30;;;;;;;;;20.60;20.60;;;;;17.80;47.33;100402.59;5051717;28;8885;-77
2022/10/06 02:11:59;;;;;;;;;21.00;21.00;;;;;17.56;47.64;100398.63;5067810;28;8865;-78
2022/10/06 02:14:30;;;;;;;;;19.60;19.60;;;;;17.68;47.41;100400.19;5084888;28;8854;-76
2022/10/06 02:17:00;;;;;;;;;19.60;17.80;;;;;17.68;47.34;100392.28;5068016;28;8829;-78
2022/10/06 02:19:29;;;;;;;;;18.20;14.40;;;;;17.58;47.40;100398.56;5068317;28;8857;-77
2022/10/06 02:21:59;;;;;;;;;19.80;18.00;;;;;17.61;47.60;100396.75;5083821;28;9002;-76
2022/10/06 02:24:29;;;;;;;;;18.40;18.40;;;;;17.66;47.65;100394.06;5084731;28;8881;-77
2022/10/06 02:26:57;;;;;;;;;17.80;15.20;;;;;17.72;47.04;100400.09;5084854;28;8900;-77
2022/10/06 02:29:26;;;;;;;;;19.20;18.00;;;;;17.73;47.65;100399.22;5067925;28;8852;-77
2022/10/06 02:31:55;;;;;;;;;18.60;18.40;;;;;17.68;47.48;100398.41;5067754;28;8866;-78
2022/10/06 02:34:26;;;;;;;;;22.20;19.40;;;;;17.73;47.47;100391.31;5068387;28;8846;-78
2022/10/06 02:36:55;;;;;;;;;22.20;21.00;;;;;17.79;47.99;100397.34;5136425;27;8854;-78
2022/10/06 02:39:24;;;;;;;;;17.40;17.40;;;;;17.79;47.42;100400.88;5117365;28;8863;-77
2022/10/06 02:41:53;;;;;;;;;17.60;17.60;;;;;17.80;47.68;100401.75;5105516;28;8867;-77
2022/10/06 02:44:24;;;;;;;;;16.60;16.40;;;;;17.72;46.98;100392.19;5118650;28;8832;-79
2022/10/06 02:46:55;;;;;;;;;16.40;16.40;;;;;17.76;47.02;100390.38;5094540;28;8830;-78
2022/10/06 02:49:23;;;;;;;;;17.80;16.40;;;;;17.79;46.80;100400.00;5102335;28;8847;-78
2022/10/06 02:51:53;;;;;;;;;20.80;18.80;;;;;17.77;47.12;100388.59;5093883;28;8855;-77
2022/10/06 02:54:22;;;;;;;;;16.40;16.00;;;;;17.73;47.17;100386.03;5076667;27;8980;-77
2022/10/06 02:56:51;;;;;;;;;18.20;16.60;;;;;17.69;47.23;100388.72;5092176;28;8859;-78
2022/10/06 02:59:20;;;;;;;;;14.80;12.40;;;;;17.63;47.10;100380.91;5109118;27;8859;-79
2022/10/06 03:01:48;;;;;;;;;16.60;16.40;;;;;17.41;48.26;100383.91;5085547;28;8853;-77
2022/10/06 03:04:18;;;;;;;;;21.60;20.20;;;;;17.47;48.02;100381.16;5069796;28;8858;-76
2022/10/06 03:06:49;;;;;;;;;19.20;19.20;;;;;17.52;48.35;100381.06;5087010;28;8854;-78
2022/10/06 03:09:21;;;;;;;;;19.60;19.40;;;;;17.41;48.49;100383.00;5067480;28;8853;-77
2022/10/06 03:11:51;;;;;;;;;25.80;22.20;;;;;17.46;48.87;100382.03;5068811;28;8953;-77
2022/10/06 03:14:46;;;;;;;;;19.60;19.20;;;;;17.43;48.80;100376.84;5004602;28;8866;-77
2022/10/06 03:17:15;;;;;;;;;24.60;23.20;;;;;17.44;48.98;100386.47;5006460;28;8944;-79
2022/10/06 03:19:50;;;;;;;;;26.40;21.20;;;;;17.49;48.87;100383.78;5006669;28;8846;-77
2022/10/06 03:22:19;;;;;;;;;22.40;22.40;;;;;17.51;48.62;100388.13;5006466;28;9040;-75
2022/10/06 03:24:55;;;;;;;;;47.25;38.75;;;;;17.51;48.81;100384.63;5007009;28;8877;-75
2022/10/06 03:27:23;;;;;;;;;21.60;21.00;;;;;17.25;49.16;100398.19;5006438;28;8862;-78
2022/10/06 03:29:56;;;;;;;;;51.25;40.50;;;;;17.31;48.89;100387.53;5005583;28;8866;-76
2022/10/06 03:32:26;;;;;;;;;22.00;20.60;;;;;17.30;48.66;100385.81;4996913;28;9087;-77
2022/10/06 03:34:56;;;;;;;;;25.25;22.00;;;;;17.33;49.08;100384.00;5029264;28;8862;-79
2022/10/06 03:37:24;;;;;;;;;23.80;23.00;;;;;17.35;48.99;100386.59;5006266;28;8959;-79
2022/10/06 03:39:54;;;;;;;;;23.50;22.00;;;;;17.36;48.95;100379.59;5006174;28;8961;-79
2022/10/06 03:42:24;;;;;;;;;31.50;30.25;;;;;17.33;49.00;100381.38;5006054;28;8893;-79
2022/10/06 03:44:54;;;;;;;;;25.80;22.80;;;;;17.33;49.24;100383.13;5005868;28;8855;-77
2022/10/06 03:47:22;;;;;;;;;23.80;21.20;;;;;17.28;49.02;100385.84;5004945;28;8952;-77
2022/10/06 03:49:50;;;;;;;;;19.00;19.00;;;;;17.25;49.21;100377.09;4989689;28;8965;-78
2022/10/06 03:52:19;;;;;;;;;20.80;20.00;;;;;17.18;48.88;100375.44;5047015;28;8909;-77
2022/10/06 03:54:55;;;;;;;;;22.40;20.00;;;;;17.08;49.08;100372.06;5048952;28;8864;-77
2022/10/06 03:57:24;;;;;;;;;25.60;22.20;;;;;17.08;49.27;100375.56;5048790;28;8852;-77
2022/10/06 03:59:52;;;;;;;;;22.75;22.75;;;;;16.91;49.51;100382.84;5049355;28;8839;-78
2022/10/06 04:02:21;;;;;;;;;20.40;19.40;;;;;16.74;50.23;100381.25;5047944;28;8981;-78
2022/10/06 04:04:50;;;;;;;;;20.60;20.60;;;;;16.52;51.02;100378.00;5065464;28;8879;-76
2022/10/06 04:07:19;;;;;;;;;27.00;26.25;;;;;16.57;51.66;100370.03;5048790;28;8836;-79
2022/10/06 04:09:48;;;;;;;;;18.80;18.80;;;;;16.65;51.12;100369.94;5048945;28;8864;-77
2022/10/06 04:12:19;;;;;;;;;25.00;23.75;;;;;16.74;50.70;100375.97;5048620;28;8847;-76
2022/10/06 04:14:47;;;;;;;;;22.60;20.60;;;;;16.82;50.88;100369.75;5066959;28;8847;-76
2022/10/06 04:17:16;;;;;;;;;24.75;24.00;;;;;16.87;49.90;100362.69;5038901;28;8969;-79
2022/10/06 04:19:44;;;;;;;;;30.00;28.50;;;;;16.89;50.17;100361.78;5072988;27;8863;-78
2022/10/06 04:22:14;;;;;;;;;22.75;22.75;;;;;16.91;50.39;100356.50;5090586;28;8855;-76
2022/10/06 04:24:42;;;;;;;;;23.40;22.80;;;;;16.91;50.17;100361.75;5104806;28;8867;-77
2022/10/06 04:27:29;;;;;;;;;24.00;23.25;;;;;16.88;49.71;100360.03;5093422;27;9677;-77
2022/10/06 04:30:10;;;;;;;;;25.75;25.00;;;;;16.90;50.07;100357.38;5090394;27;8942;-79
2022/10/06 04:32:39;;;;;;;;;3.00;2.00;;;;;16.85;50.25;100365.34;5076247;27;9736;-79
2022/10/06 04:35:09;;;;;;;;;24.75;24.75;;;;;16.75;50.42;100369.81;5108277;27;8856;-78
2022/10/06 04:37:38;;;;;;;;;25.20;24.60;;;;;16.66;51.00;100374.34;5089743;27;8948;-77
2022/10/06 04:40:08;;;;;;;;;27.75;27.50;;;;;16.62;51.36;100370.00;5084218;27;8854;-78
2022/10/06 04:42:37;;;;;;;;;30.00;25.75;;;;;16.59;51.62;100386.69;5041684;27;8978;-78
2022/10/06 04:45:11;;;;;;;;;29.00;27.50;;;;;16.58;51.65;100379.72;5073075;27;8847;-78
2022/10/06 04:47:42;;;;;;;;;29.25;27.25;;;;;16.59;51.62;100384.06;5110505;27;8832;-78
2022/10/06 04:50:11;;;;;;;;;24.00;24.00;;;;;16.46;51.12;100379.84;5103389;27;8929;-78
2022/10/06 04:52:59;;;;;;;;;25.00;24.75;;;;;16.34;51.36;100380.84;5107426;27;8860;-79
2022/10/06 04:55:28;;;;;;;;;28.00;25.50;;;;;16.29;51.81;100388.78;5091840;28;8871;-78
2022/10/06 04:57:56;;;;;;;;;22.40;22.00;;;;;16.31;51.62;100388.75;5091834;27;8855;-78
2022/10/06 05:00:27;;;;;;;;;26.40;23.60;;;;;16.29;51.36;100388.78;5092097;27;9609;-77
2022/10/06 05:02:57;;;;;;;;;25.25;23.75;;;;;16.31;51.29;100381.75;5072239;27;8963;-77
2022/10/06 05:05:26;;;;;;;;;22.40;22.00;;;;;16.24;51.12;100374.81;5089003;27;8859;-77
2022/10/06 05:07:56;;;;;;;;;26.00;26.00;;;;;16.31;51.54;100376.50;5089725;28;8871;-80
2022/10/06 05:10:24;;;;;;;;;27.00;26.50;;;;;16.29;51.74;100377.38;5105721;27;9606;-79
2022/10/06 05:12:55;;;;;;;;;27.50;26.50;;;;;16.36;51.39;100379.06;5090827;28;8844;-77
2022/10/06 05:15:24;;;;;;;;;34.00;28.50;;;;;16.37;51.27;100370.28;5093586;27;8945;-78
2022/10/06 05:17:53;;;;;;;;;29.50;28.00;;;;;16.36;51.79;100369.41;5091824;27;8876;-77
2022/10/06 05:20:23;;;;;;;;;31.00;29.25;;;;;16.43;51.86;100378.13;5096202;27;8836;-78
2022/10/06 05:22:52;;;;;;;;;35.00;32.25;;;;;16.49;51.58;100366.66;5090323;27;8844;-79
2022/10/06 05:25:21;;;;;;;;;38.50;33.75;;;;;16.51;51.42;100373.63;5109010;27;8872;-78
2022/10/06 05:27:49;;;;;;;;;39.50;35.75;;;;;16.50;51.65;100379.81;5105906;27;9017;-79
2022/10/06 05:30:18;;;;;;;;;44.75;38.50;;;;;16.53;52.11;100382.38;5053824;27;8848;-78
2022/10/06 05:32:49;;;;;;;;;42.25;36.00;;;;;16.49;52.33;100379.81;5088664;27;8874;-77
2022/10/06 05:35:20;;;;;;;;;49.00;40.50;;;;;16.45;52.63;100381.59;5090334;27;8847;-77
2022/10/06 05:37:49;;;;;;;;;48.50;41.75;;;;;16.51;52.15;100378.03;5089658;28;8852;-79
2022/10/06 05:40:17;;;;;;;;;43.50;37.75;;;;;16.55;52.18;100385.00;5064730;28;8993;-78
2022/10/06 05:42:46;;;;;;;;;49.75;42.75;;;;;16.62;52.00;100391.94;5059656;28;8955;-78
2022/10/06 05:45:15;;;;;;;;;52.75;45.00;;;;;16.65;52.20;100389.25;5067527;28;8880;-79
2022/10/06 05:47:43;;;;;;;;;55.25;46.25;;;;;16.67;52.45;100395.41;5068265;28;8861;-78
2022/10/06 05:50:11;;;;;;;;;51.75;42.75;;;;;16.54;52.56;100391.13;5047945;28;8855;-79
2022/10/06 05:52:42;;;;;;;;;48.25;41.25;;;;;16.48;52.64;100400.00;5067919;28;8873;-78
2022/10/06 05:55:10;;;;;;;;;57.00;45.00;;;;;16.52;52.90;100403.44;5085228;28;8987;-79
2022/10/06 05:57:39;;;;;;;;;53.00;44.00;;;;;16.62;52.82;100396.34;5067728;28;8853;-78
2022/10/06 06:00:09;;;;;;;;;62.00;49.00;;;;;16.68;53.12;100405.03;5030410;28;8878;-79
2022/10/06 06:02:40;;;;;;;;;57.67;48.00;;;;;16.56;53.99;100413.09;5064696;28;9042;-78
2022/10/06 06:05:09;;;;;;;;;56.25;47.25;;;;;16.42;54.43;100418.47;5014093;28;8946;-77
2022/10/06 06:07:38;;;;;;;;;60.00;50.00;;;;;16.40;55.10;100422.88;5067972;28;8861;-78
2022/10/06 06:10:09;;;;;;;;;55.25;45.25;;;;;16.66;54.24;100417.34;5008536;28;9182;-78
2022/10/06 06:12:38;;;;;;;;;55.00;43.00;;;;;16.85;53.56;100422.44;5008141;28;8849;-79
2022/10/06 06:18:16;;;;;;;;;47.50;39.00;;;;;17.23;52.12;100428.97;4994095;28;8968;-77
2022/10/06 06:20:54;;;;;;;;;36.75;34.25;;;;;17.31;51.42;100430.59;4993390;28;9062;-79
2022/10/06 06:23:23;;;;;;;;;37.75;35.00;;;;;17.45;51.05;100426.91;4993913;28;8851;-78
2022/10/06 06:26:00;;;;;;;;;41.50;37.00;;;;;17.66;50.87;100434.50;4992119;28;8904;-79
2022/10/06 06:28:34;;;;;;;;;48.00;41.50;;;;;17.73;50.52;100443.16;4992492;28;8870;-79
2022/10/06 06:31:05;;;;;;;;;41.25;36.00;;;;;17.89;50.49;100443.84;4992093;28;8851;-78
2022/10/06 06:33:36;;;;;;;;;41.50;37.50;;;;;18.03;49.79;100452.38;4991504;28;8866;-80
2022/10/06 06:36:13;;;;;;;;;25.00;23.75;;;;;18.28;49.21;100441.44;4994366;28;8878;-79
2022/10/06 06:38:42;;;;;;;;;35.75;33.75;;;;;18.34;48.67;100440.47;4992387;28;8866;-79
2022/10/06 06:41:16;;;;;;;;;33.25;31.50;;;;;18.52;48.38;100445.38;5044419;28;8871;-79
2022/10/06 06:43:46;;;;;;;;;34.75;31.25;;;;;18.60;47.93;100454.06;5067366;28;8898;-80
2022/10/06 06:46:26;;;;;;;;;56.75;46.00;;;;;18.73;48.44;100443.22;5051315;28;8875;-82
2022/10/06 06:49:03;;;;;;;;;69.00;56.00;;;;;18.88;48.49;100448.25;5087682;27;8966;-80
2022/10/06 06:51:35;;;;;;;;;55.50;46.25;;;;;18.89;47.86;100448.22;5092307;28;9389;-78
2022/10/06 06:54:05;;;;;;;;;49.75;42.75;;;;;19.11;47.73;100449.53;5093296;28;8944;-79
2022/10/06 06:56:39;;;;;;;;;49.75;40.75;;;;;19.28;47.62;100460.63;5076531;28;8851;-79
2022/10/06 06:59:10;;;;;;;;;39.00;32.50;;;;;19.45;47.47;100452.31;5093065;28;8978;-78
2022/10/06 07:01:45;;;;;;;;;50.25;42.25;;;;;19.63;46.75;100453.69;5089024;28;8859;-75
2022/10/06 07:04:17;;;;;;;;;48.00;40.00;;;;;19.79;46.49;100451.56;5109509;27;9628;-73
2022/10/06 07:06:52;;;;;;;;;53.00;43.00;;;;;19.94;46.06;100461.78;5092272;28;8883;-74
2022/10/06 07:09:21;;;;;;;;;46.75;39.50;;;;;20.02;45.83;100461.63;5092759;28;8893;-73
2022/10/06 07:11:53;;;;;;;;;48.25;39.75;;;;;20.05;45.92;100469.47;5092434;28;8856;-75
2022/10/06 07:14:24;;;;;;;;;44.50;38.00;;;;;20.07;45.55;100467.66;5110755;27;8838;-73
2022/10/06 07:25:22;;;;;;;;;34.00;32.25;;;;;20.48;43.88;100480.75;5111793;27;8852;-76
2022/10/06 07:28:02;;;;;;;;;37.25;33.00;;;;;20.61;43.78;100471.59;5112445;27;9743;-75
2022/10/06 07:30:38;;;;;;;;;35.50;32.75;;;;;20.69;43.08;100484.66;5095237;28;8863;-75
2022/10/06 07:33:18;;;;;;;;;31.75;29.50;;;;;20.77;43.12;100483.50;5091804;28;8863;-75
2022/10/06 07:35:48;;;;;;;;;34.75;32.50;;;;;20.77;42.67;100487.94;5092330;28;8836;-75
2022/10/06 07:38:24;;;;;;;;;34.50;30.25;;;;;20.81;43.37;100486.94;5092009;28;8889;-75
2022/10/06 07:40:55;;;;;;;;;44.00;36.75;;;;;20.72;43.27;100481.88;5105468;27;8838;-75
2022/10/06 07:43:45;;;;;;;;;43.00;35.00;;;;;20.64;43.35;100490.06;5104757;27;8922;-75
2022/10/06 07:46:17;;;;;;;;;41.50;35.25;;;;;19.94;44.79;100490.03;5051238;28;9044;-75
2022/10/06 07:49:20;;;;;;;;;39.00;34.75;;;;;19.82;45.60;100492.06;5041524;28;8868;-71
2022/10/06 07:51:49;;;;;;;;;35.00;32.50;;;;;19.89;45.81;100494.59;5017228;28;8894;-73
2022/10/06 07:54:18;;;;;;;;;41.75;35.75;;;;;19.53;46.40;100500.66;5062806;28;8842;-71
2022/10/06 07:57:09;;;;;;;;;42.00;35.50;;;;;18.97;48.14;100498.28;5030263;28;8855;-69
2022/10/06 07:59:40;;;;;;;;;33.00;31.25;;;;;18.90;47.71;100499.28;5060461;28;8939;-68
2022/10/06 08:02:09;;;;;;;;;38.00;33.25;;;;;18.95;47.73;100505.38;5017597;28;8898;-74
2022/10/06 08:04:37;;;;;;;;;36.50;33.00;;;;;18.39;49.72;100507.25;5066268;28;8848;-71
2022/10/06 08:07:09;;;;;;;;;32.50;31.50;;;;;18.75;48.41;100496.91;5066594;28;8882;-69
2022/10/06 08:09:37;;;;;;;;;47.75;38.75;;;;;18.46;49.17;100508.88;5066140;28;8867;-68
2022/10/06 08:14:49;;;;;;;;;30.00;30.00;;;;;19.11;46.97;100516.53;5045307;28;8872;-69
2022/10/06 08:17:19;;;;;;;;;22.00;21.50;;;;;19.50;46.34;100508.66;5046356;28;8955;-67
2022/10/06 08:19:47;;;;;;;;;21.80;21.80;;;;;18.92;46.20;100523.91;4997455;28;8854;-68
2022/10/06 08:22:15;;;;;;;;;27.50;23.75;;;;;18.93;45.95;100522.16;5045559;28;9067;-69
2022/10/06 08:24:44;;;;;;;;;21.40;18.00;;;;;18.60;46.49;100521.84;5071124;27;8858;-69
2022/10/06 08:27:33;;;;;;;;;20.60;20.20;;;;;18.28;46.73;100523.28;5129106;27;8957;-68
2022/10/06 08:30:06;;;;;;;;;21.80;20.40;;;;;18.43;47.13;100524.78;5129492;27;8841;-70
2022/10/06 08:32:35;;;;;;;;;21.40;21.20;;;;;18.59;46.74;100515.69;5128989;27;8858;-70
2022/10/06 08:35:04;;;;;;;;;27.25;26.50;;;;;18.81;46.09;100510.94;5110897;27;8857;-69
2022/10/06 08:37:32;;;;;;;;;25.50;21.50;;;;;19.10;45.64;100512.13;5108643;28;8867;-73
2022/10/06 08:40:01;;;;;;;;;22.60;21.80;;;;;18.69;46.33;100521.69;5109123;28;8982;-74
2022/10/06 08:42:38;;;;;;;;;22.00;21.80;;;;;18.55;46.97;100523.72;5109419;28;8859;-73
2022/10/06 08:45:14;;;;;;;;;20.20;19.80;;;;;19.22;45.76;100513.66;5109180;28;8855;-72
2022/10/06 08:47:53;;;;;;;;;21.20;21.00;;;;;19.29;45.60;100509.97;5108615;28;8855;-73
2022/10/06 08:50:25;;;;;;;;;21.60;19.80;;;;;19.86;44.98;100514.03;5108885;28;8871;-73
2022/10/06 08:53:06;;;;;;;;;24.80;24.80;;;;;20.36;44.39;100513.72;5108896;28;8843;-73
2022/10/06 08:55:41;;;;;;;;;29.50;28.25;;;;;20.69;43.76;100517.31;5079582;27;8941;-72
2022/10/06 08:58:33;;;;;;;;;28.75;27.25;;;;;21.14;43.14;100513.44;5128234;27;8867;-74
2022/10/06 09:01:14;;;;;;;;;27.25;25.75;;;;;20.57;43.12;100517.63;5107671;28;8881;-76
2022/10/06 09:03:47;;;;;;;;;26.00;24.60;;;;;20.34;44.12;100515.53;5123496;27;8878;-74
2022/10/06 09:06:25;;;;;;;;;30.75;29.25;;;;;20.12;44.30;100513.44;5111840;27;8866;-73
2022/10/06 09:08:58;;;;;;;;;27.25;27.25;;;;;20.08;44.48;100513.56;5087307;28;9404;-72
2022/10/06 09:11:46;;;;;;;;;23.25;23.25;;;;;19.42;45.69;100522.03;5111281;27;8862;-73
2022/10/06 09:14:20;;;;;;;;;27.00;24.25;;;;;19.45;46.13;100524.63;5093161;28;8928;-73
2022/10/06 09:16:54;;;;;;;;;29.25;27.50;;;;;19.28;46.34;100526.72;5084774;28;8906;-73
2022/10/06 09:19:35;;;;;;;;;23.00;23.00;;;;;19.79;45.30;100513.34;5085262;28;8850;-74
2022/10/06 09:22:06;;;;;;;;;30.75;29.50;;;;;20.14;44.16;100529.28;5090370;28;8835;-73
2022/10/06 09:24:40;;;;;;;;;29.75;28.00;;;;;20.48;43.74;100529.31;5093626;28;8845;-77
2022/10/06 09:27:18;;;;;;;;;22.75;22.75;;;;;20.93;43.63;100530.81;5099980;28;8871;-74
2022/10/06 09:29:48;;;;;;;;;31.50;30.50;;;;;21.18;43.15;100531.00;5105308;28;8839;-74
2022/10/06 09:32:19;;;;;;;;;29.75;29.00;;;;;21.44;41.83;100524.97;5105094;28;8873;-73
2022/10/06 09:34:51;;;;;;;;;31.00;29.75;;;;;21.65;41.51;100527.91;5080292;28;8850;-73
2022/10/06 09:37:19;;;;;;;;;33.25;31.75;;;;;21.82;40.91;100524.72;5053012;28;8938;-76
2022/10/06 09:39:50;;;;;;;;;32.75;31.50;;;;;22.03;40.78;100531.16;5068428;28;8846;-77
2022/10/06 09:42:22;;;;;;;;;36.75;32.50;;;;;22.23;40.53;100525.16;5085240;28;8853;-73
2022/10/06 09:45:00;;;;;;;;;37.50;33.00;;;;;22.39;40.28;100526.44;5077972;28;8836;-79
2022/10/06 09:47:35;;;;;;;;;43.25;37.50;;;;;22.57;40.14;100520.50;5108252;27;8844;-79
2022/10/06 09:50:15;;;;;;;;;41.50;37.25;;;;;22.64;40.17;100521.13;5113653;27;8940;-78
2022/10/06 09:53:02;;;;;;;;;44.50;38.75;;;;;22.68;40.04;100529.88;5113542;27;9606;-77
2022/10/06 09:55:40;;;;;;;;;41.25;37.00;;;;;22.80;40.25;100524.13;5106987;28;8855;-78
2022/10/06 09:58:20;;;;;;;;;44.00;38.25;;;;;23.00;40.14;100531.38;5092188;27;8857;-77
2022/10/06 10:00:54;;;;;;;;;43.00;36.00;;;;;23.07;39.64;100534.75;5098963;28;8852;-75
2022/10/06 10:03:29;;;;;;;;;44.00;38.50;;;;;22.35;40.49;100530.97;5116988;27;8836;-76
2022/10/06 10:05:58;;;;;;;;;43.00;36.25;;;;;22.63;40.69;100534.47;5107557;28;8974;-75
2022/10/06 10:08:29;;;;;;;;;44.50;38.00;;;;;21.74;41.41;100539.09;5110565;27;8864;-76
2022/10/06 10:13:56;;;;;;;;;45.00;39.00;;;;;22.52;41.01;100529.56;5113353;27;9603;-75
2022/10/06 10:16:26;;;;;;;;;44.75;39.00;;;;;21.56;43.13;100537.00;5114494;28;8887;-76
2022/10/06 10:18:58;;;;;;;;;44.00;38.00;;;;;21.48;43.27;100529.28;5107265;28;8872;-76
2022/10/06 10:21:32;;;;;;;;;46.50;39.00;;;;;20.99;44.76;100534.16;5118351;27;8846;-72
2022/10/06 10:24:03;;;;;;;;;43.25;38.75;;;;;21.40;42.87;100528.59;5112284;27;8845;-73
2022/10/06 10:26:48;;;;;;;;;44.00;37.50;;;;;21.03;44.65;100529.66;5122386;28;8866;-73
2022/10/06 10:29:37;;;;;;;;;43.75;38.75;;;;;21.79;43.64;100526.53;5119803;27;8834;-72
2022/10/06 10:32:14;;;;;;;;;45.00;38.25;;;;;22.15;42.52;100530.72;5108627;27;8849;-75
2022/10/06 10:35:03;;;;;;;;;34.75;32.50;;;;;22.44;41.71;100532.47;5113856;27;8840;-72
2022/10/06 10:37:41;;;;;;;;;39.75;34.25;;;;;22.65;41.18;100528.19;5107503;28;9001;-73
2022/10/06 10:40:29;;;;;;;;;38.25;34.25;;;;;22.96;39.98;100520.00;5107085;28;9044;-71
2022/10/06 10:43:06;;;;;;;;;44.75;38.00;;;;;23.22;39.35;100525.34;5107232;28;8894;-72
2022/10/06 10:45:39;;;;;;;;;35.50;32.00;;;;;23.09;38.71;100530.22;5107401;28;9616;-72
2022/10/06 10:48:15;;;;;;;;;40.25;34.50;;;;;23.46;38.42;100521.75;5089494;28;8887;-71
2022/10/06 10:50:54;;;;;;;;;38.50;34.00;;;;;22.75;39.31;100526.94;5124030;27;8846;-71
2022/10/06 10:53:29;;;;;;;;;34.25;32.50;;;;;22.82;39.05;100526.75;5075300;27;8854;-72
2022/10/06 10:55:58;;;;;;;;;36.50;34.00;;;;;23.24;39.14;100527.00;5109705;27;8933;-72
2022/10/06 10:58:31;;;;;;;;;30.00;29.00;;;;;23.55;37.74;100518.72;5128185;27;8864;-72
2022/10/06 11:01:07;;;;;;;;;30.25;28.25;;;;;23.80;36.54;100514.25;5129590;27;8860;-72
2022/10/06 11:03:36;;;;;;;;;30.50;27.75;;;;;24.01;35.91;100518.72;5131314;27;8902;-74
2022/10/06 11:06:25;;;;;;;;;30.50;30.00;;;;;24.28;35.44;100522.03;5131692;27;8826;-72
2022/10/06 11:08:58;;;;;;;;;28.25;28.25;;;;;24.41;35.20;100519.72;5118546;27;9013;-72
2022/10/06 11:11:42;;;;;;;;;27.75;25.00;;;;;24.64;35.18;100525.91;5110619;28;8851;-72
2022/10/06 11:14:26;;;;;;;;;28.50;25.25;;;;;24.00;35.55;100532.09;5110348;28;8867;-70
2022/10/06 11:17:04;;;;;;;;;28.75;28.00;;;;;23.49;36.42;100534.91;5092891;28;9553;-73
2022/10/06 11:19:44;;;;;;;;;29.25;28.50;;;;;23.37;37.02;100526.56;5110787;28;8961;-72
2022/10/06 11:22:20;;;;;;;;;28.75;25.75;;;;;23.86;36.66;100535.34;5110611;28;8844;-73
2022/10/06 11:24:56;;;;;;;;;29.00;27.50;;;;;24.07;35.66;100531.78;5120310;27;8837;-71
2022/10/06 11:27:36;;;;;;;;;28.75;28.00;;;;;24.42;35.67;100529.44;5131015;27;8830;-73
2022/10/06 11:30:11;;;;;;;;;25.50;24.75;;;;;24.77;35.12;100532.44;5077996;27;8872;-74
2022/10/06 11:32:53;;;;;;;;;28.75;25.75;;;;;25.07;34.25;100532.03;5094379;27;8953;-73
2022/10/06 11:35:25;;;;;;;;;25.00;24.00;;;;;25.27;33.91;100523.13;5131411;27;8902;-72
2022/10/06 11:38:03;;;;;;;;;29.50;24.75;;;;;25.19;33.61;100533.28;5131188;27;8909;-72
2022/10/06 11:40:40;;;;;;;;;25.00;23.60;;;;;24.26;33.31;100521.25;5130902;27;8841;-73
2022/10/06 11:43:18;;;;;;;;;19.75;19.75;;;;;23.76;35.09;100526.78;5123337;27;8839;-71
2022/10/06 11:45:58;;;;;;;;;33.00;30.50;;;;;24.03;36.28;100519.53;5110496;28;8850;-72
2022/10/06 11:48:30;;;;;;;;;22.75;22.00;;;;;24.11;34.96;100516.56;5110159;28;8851;-71
2022/10/06 11:51:27;;;;;;;;;24.00;23.75;;;;;23.75;35.76;100517.06;5110287;28;8856;-72
2022/10/06 11:53:59;;;;;;;;;23.75;22.50;;;;;23.72;36.45;100520.72;5073955;28;8924;-72
2022/10/06 11:56:45;;;;;;;;;26.75;25.00;;;;;23.90;35.88;100513.81;5110367;28;8867;-73
2022/10/06 11:59:25;;;;;;;;;27.50;22.75;;;;;23.80;36.06;100511.56;5110696;28;8848;-73